createdAt,value
2023-03-16T00:00:20.360Z,100.00
2023-03-16T00:02:49.229Z,100.00
2023-03-16T00:05:16.774Z,100.00
2023-03-16T00:07:44.765Z,100.00
2023-03-16T00:10:13.525Z,100.00
2023-03-16T00:12:43.657Z,100.00
2023-03-16T00:15:12.144Z,100.00
2023-03-16T00:17:39.617Z,100.00
2023-03-16T00:20:10.610Z,100.00
2023-03-16T00:22:38.093Z,100.00
2023-03-16T00:25:06.588Z,100.00
2023-03-16T00:27:34.070Z,100.00
2023-03-16T00:30:03.553Z,100.00
2023-03-16T00:32:33.347Z,100.00
2023-03-16T00:35:01.955Z,100.00
2023-03-16T00:37:32.756Z,100.00
2023-03-16T00:40:01.221Z,100.00
2023-03-16T00:42:31.416Z,100.00
2023-03-16T00:45:00.166Z,100.00
2023-03-16T00:47:30.132Z,100.00
2023-03-16T00:49:57.759Z,100.00
2023-03-16T00:52:27.298Z,100.00
2023-03-16T00:54:57.183Z,100.00
2023-03-16T00:57:27.708Z,100.00
2023-03-16T00:59:55.324Z,100.00
2023-03-16T01:02:24.589Z,100.00
2023-03-16T01:04:54.484Z,100.00
2023-03-16T01:07:22.798Z,100.00
2023-03-16T01:09:50.343Z,100.00
2023-03-16T01:12:20.411Z,100.00
2023-03-16T01:14:48.579Z,100.00
2023-03-16T01:17:17.261Z,100.00
2023-03-16T01:19:45.977Z,100.00
2023-03-16T01:22:13.915Z,100.00
2023-03-16T01:24:42.529Z,100.00
2023-03-16T01:27:10.389Z,100.00
2023-03-16T01:29:40.021Z,100.00
2023-03-16T01:32:08.282Z,100.00
2023-03-16T01:34:35.999Z,100.00
2023-03-16T01:37:03.824Z,100.00
2023-03-16T01:39:31.624Z,100.00
2023-03-16T01:41:59.119Z,100.00
2023-03-16T01:44:30.458Z,100.00
2023-03-16T01:46:59.427Z,100.00
2023-03-16T01:49:32.680Z,100.00
2023-03-16T01:52:03.495Z,100.00
2023-03-16T01:54:34.779Z,100.00
2023-03-16T01:57:07.125Z,100.00
2023-03-16T01:59:38.477Z,100.00
2023-03-16T02:02:09.160Z,100.00
2023-03-16T02:04:44.037Z,100.00
2023-03-16T02:07:17.135Z,100.00
2023-03-16T02:09:47.209Z,100.00
2023-03-16T02:12:18.792Z,100.00
2023-03-16T02:14:46.485Z,100.00
2023-03-16T02:17:17.013Z,100.00
2023-03-16T02:19:52.619Z,100.00
2023-03-16T02:22:25.056Z,99.65
2023-03-16T02:24:53.023Z,100.00
2023-03-16T02:27:31.276Z,100.00
2023-03-16T02:30:07.206Z,100.00
2023-03-16T02:32:37.343Z,100.00
2023-03-16T02:35:05.880Z,100.00
2023-03-16T02:37:34.228Z,100.00
2023-03-16T02:40:01.972Z,100.00
2023-03-16T02:42:29.979Z,100.00
2023-03-16T02:44:59.829Z,100.00
2023-03-16T02:47:34.948Z,100.00
2023-03-16T02:50:06.355Z,100.00
2023-03-16T02:52:34.931Z,100.00
2023-03-16T02:55:02.752Z,100.00
2023-03-16T02:57:30.228Z,100.00
2023-03-16T02:59:57.688Z,100.00
2023-03-16T03:02:25.449Z,100.00
2023-03-16T03:04:55.028Z,100.00
2023-03-16T03:07:31.642Z,100.00
2023-03-16T03:09:59.345Z,100.00
2023-03-16T03:12:26.852Z,100.00
2023-03-16T03:14:54.339Z,100.00
2023-03-16T03:17:21.796Z,100.00
2023-03-16T03:19:49.250Z,100.00
2023-03-16T03:22:18.601Z,100.00
2023-03-16T03:24:46.579Z,100.00
2023-03-16T03:27:14.803Z,100.00
2023-03-16T03:29:42.279Z,100.00
2023-03-16T03:32:10.100Z,100.00
2023-03-16T03:34:38.047Z,100.00
2023-03-16T03:37:05.576Z,100.00
2023-03-16T03:39:35.271Z,100.00
2023-03-16T03:42:02.976Z,100.00
2023-03-16T03:44:34.527Z,100.00
2023-03-16T03:47:02.173Z,100.00
2023-03-16T03:49:29.868Z,100.00
2023-03-16T03:51:59.079Z,100.00
2023-03-16T03:54:26.912Z,100.00
2023-03-16T03:56:55.719Z,100.00
2023-03-16T03:59:23.506Z,100.00
2023-03-16T04:01:53.707Z,100.00
2023-03-16T04:04:21.265Z,100.00
2023-03-16T04:06:48.970Z,100.00
2023-03-16T04:09:16.475Z,100.00
2023-03-16T04:11:43.967Z,100.00
2023-03-16T04:14:12.823Z,100.00
2023-03-16T04:16:40.334Z,100.00
2023-03-16T04:19:07.856Z,100.00
2023-03-16T04:21:35.322Z,100.00
2023-03-16T04:24:05.103Z,100.00
2023-03-16T04:26:34.196Z,100.00
2023-03-16T04:29:03.532Z,100.00
2023-03-16T04:31:32.436Z,100.00
2023-03-16T04:34:00.053Z,100.00
2023-03-16T04:36:27.580Z,100.00
2023-03-16T04:38:55.082Z,100.00
2023-03-16T04:41:22.577Z,100.00
2023-03-16T04:43:50.051Z,100.00
2023-03-16T04:46:17.644Z,100.00
2023-03-16T04:48:46.493Z,100.00
2023-03-16T04:51:13.984Z,100.00
2023-03-16T04:53:41.496Z,100.00
2023-03-16T04:56:09.594Z,100.00
2023-03-16T04:58:37.133Z,100.00
2023-03-16T05:01:04.673Z,100.00
2023-03-16T05:03:32.532Z,100.00
2023-03-16T05:06:01.489Z,100.00
2023-03-16T05:08:29.051Z,100.00
2023-03-16T05:10:58.072Z,100.00
2023-03-16T05:13:25.871Z,100.00
2023-03-16T05:15:54.505Z,100.00
2023-03-16T05:18:22.514Z,100.00
2023-03-16T05:20:51.365Z,100.00
2023-03-16T05:23:20.238Z,100.00
2023-03-16T05:25:47.870Z,100.00
2023-03-16T05:28:15.767Z,100.00
2023-03-16T05:30:45.084Z,100.00
2023-03-16T05:33:13.082Z,100.00
2023-03-16T05:35:40.941Z,100.00
2023-03-16T05:38:09.089Z,100.00
2023-03-16T05:40:38.153Z,100.00
2023-03-16T05:43:05.740Z,100.00
2023-03-16T05:45:33.645Z,100.00
2023-03-16T05:48:01.143Z,100.00
2023-03-16T05:50:28.897Z,100.00
2023-03-16T05:52:56.495Z,100.00
2023-03-16T05:55:24.426Z,100.00
2023-03-16T05:57:53.253Z,100.00
2023-03-16T06:00:22.725Z,100.00
2023-03-16T06:02:52.211Z,100.00
2023-03-16T06:05:21.745Z,100.00
2023-03-16T06:07:50.113Z,100.00
2023-03-16T06:10:18.160Z,100.00
2023-03-16T06:12:46.192Z,100.00
2023-03-16T06:15:15.034Z,100.00
2023-03-16T06:17:42.807Z,100.00
2023-03-16T06:20:13.658Z,100.00
2023-03-16T06:22:42.513Z,100.00
2023-03-16T06:25:12.088Z,100.00
2023-03-16T06:27:40.137Z,100.00
2023-03-16T06:30:09.676Z,100.00
2023-03-16T06:32:38.857Z,100.00
2023-03-16T06:35:06.901Z,100.00
2023-03-16T06:37:34.447Z,100.00
2023-03-16T06:40:02.012Z,100.00
2023-03-16T06:42:29.545Z,100.00
2023-03-16T06:44:57.025Z,100.00
2023-03-16T06:47:24.506Z,100.00
2023-03-16T06:49:55.213Z,100.00
2023-03-16T06:52:23.093Z,100.00
2023-03-16T06:54:50.993Z,100.00
2023-03-16T06:57:18.545Z,100.00
2023-03-16T06:59:46.070Z,100.00
2023-03-16T07:02:15.230Z,100.00
2023-03-16T07:04:42.775Z,100.00
2023-03-16T07:07:12.671Z,100.00
2023-03-16T07:09:41.858Z,100.00
2023-03-16T07:12:10.109Z,100.00
2023-03-16T07:14:37.700Z,100.00
2023-03-16T07:17:05.359Z,100.00
2023-03-16T07:19:32.882Z,100.00
2023-03-16T07:22:00.389Z,100.00
2023-03-16T07:24:29.721Z,100.00
2023-03-16T07:26:57.217Z,100.00
2023-03-16T07:29:24.749Z,100.00
2023-03-16T07:31:53.534Z,100.00
2023-03-16T07:34:21.255Z,100.00
2023-03-16T07:36:49.522Z,100.00
2023-03-16T07:39:17.771Z,100.00
2023-03-16T07:41:46.593Z,100.00
2023-03-16T07:44:14.375Z,100.00
2023-03-16T07:46:42.412Z,100.00
2023-03-16T07:49:12.166Z,100.00
2023-03-16T07:51:39.989Z,100.00
2023-03-16T07:54:07.438Z,100.00
2023-03-16T07:56:47.789Z,100.00
2023-03-16T07:59:20.410Z,100.00
2023-03-16T08:01:48.868Z,100.00
2023-03-16T08:04:16.316Z,100.00
2023-03-16T08:06:43.830Z,100.00
2023-03-16T08:09:11.808Z,100.00
2023-03-16T08:11:39.439Z,100.00
2023-03-16T08:14:06.905Z,100.00
2023-03-16T08:16:36.687Z,100.00
2023-03-16T08:19:04.222Z,100.00
2023-03-16T08:21:31.685Z,100.00
2023-03-16T08:23:59.125Z,100.00
2023-03-16T08:26:27.205Z,100.00
2023-03-16T08:28:55.173Z,100.00
2023-03-16T08:31:23.507Z,100.00
2023-03-16T08:33:52.687Z,100.00
2023-03-16T08:36:21.028Z,100.00
2023-03-16T08:39:03.868Z,100.00
2023-03-16T08:41:34.654Z,100.00
2023-03-16T08:44:03.117Z,100.00
2023-03-16T08:46:31.709Z,100.00
2023-03-16T08:49:01.146Z,100.00
2023-03-16T08:51:29.440Z,100.00
2023-03-16T08:53:56.973Z,100.00
2023-03-16T08:56:24.471Z,100.00
2023-03-16T08:58:53.001Z,100.00
2023-03-16T09:01:21.050Z,100.00
2023-03-16T09:03:48.657Z,93.82
2023-03-16T09:06:18.461Z,89.93
2023-03-16T09:08:47.661Z,84.45
2023-03-16T09:11:17.656Z,73.42
2023-03-16T09:13:46.043Z,70.37
2023-03-16T09:16:15.661Z,65.14
2023-03-16T09:18:43.640Z,62.21
2023-03-16T09:21:13.826Z,63.66
2023-03-16T09:23:43.039Z,64.66
2023-03-16T09:26:12.422Z,64.74
2023-03-16T09:28:41.952Z,66.51
2023-03-16T09:31:11.600Z,68.92
2023-03-16T09:33:39.939Z,66.77
2023-03-16T09:36:07.581Z,67.99
2023-03-16T09:38:35.050Z,66.12
2023-03-16T09:41:09.424Z,67.56
2023-03-16T09:43:58.975Z,69.42
2023-03-16T09:46:29.387Z,66.18
2023-03-16T09:48:58.071Z,62.44
2023-03-16T09:51:38.566Z,61.97
2023-03-16T09:54:18.023Z,62.13
2023-03-16T09:56:47.707Z,61.84
2023-03-16T09:59:17.447Z,61.78
2023-03-16T10:01:57.078Z,63.83
2023-03-16T10:04:44.312Z,63.69
2023-03-16T10:07:26.461Z,62.88
2023-03-16T10:09:59.150Z,66.08
2023-03-16T10:12:37.307Z,66.75
2023-03-16T10:15:09.754Z,64.80
2023-03-16T10:17:42.358Z,63.25
2023-03-16T10:20:17.390Z,63.26
2023-03-16T10:22:46.667Z,62.98
2023-03-16T10:25:23.515Z,63.54
2023-03-16T10:27:53.006Z,62.69
2023-03-16T10:30:27.868Z,63.19
2023-03-16T10:32:56.343Z,62.10
2023-03-16T10:35:36.090Z,61.91
2023-03-16T10:38:03.670Z,59.60
2023-03-16T10:40:33.071Z,61.72
2023-03-16T10:43:09.235Z,63.27
2023-03-16T10:45:38.001Z,66.92
2023-03-16T10:48:09.931Z,64.01
2023-03-16T10:50:37.433Z,63.92
2023-03-16T10:53:05.302Z,64.40
2023-03-16T10:55:42.294Z,65.82
2023-03-16T10:58:11.175Z,70.13
2023-03-16T11:00:45.455Z,68.66
2023-03-16T11:03:25.385Z,69.33
2023-03-16T11:06:02.160Z,67.43
2023-03-16T11:08:33.860Z,66.15
2023-03-16T11:11:09.019Z,68.50
2023-03-16T11:13:39.144Z,67.39
2023-03-16T11:16:18.947Z,64.18
2023-03-16T11:18:49.843Z,66.04
2023-03-16T11:21:25.631Z,66.31
2023-03-16T11:23:56.641Z,62.56
2023-03-16T11:26:28.694Z,59.36
2023-03-16T11:29:08.930Z,58.41
2023-03-16T11:31:46.055Z,55.11
2023-03-16T11:34:17.749Z,56.63
2023-03-16T11:36:50.096Z,57.01
2023-03-16T11:39:28.872Z,57.62
2023-03-16T11:42:05.492Z,57.78
2023-03-16T11:44:42.713Z,58.85
2023-03-16T11:47:53.202Z,59.30
2023-03-16T11:50:25.809Z,57.74
2023-03-16T11:53:04.906Z,56.22
2023-03-16T11:55:40.927Z,56.90
2023-03-16T11:58:22.351Z,56.77
2023-03-16T12:00:59.034Z,55.60
2023-03-16T12:03:43.448Z,54.64
2023-03-16T12:06:24.183Z,53.28
2023-03-16T12:09:08.873Z,53.11
2023-03-16T12:11:45.469Z,53.54
2023-03-16T12:14:19.829Z,51.58
2023-03-16T12:16:55.082Z,51.73
2023-03-16T12:19:27.772Z,50.15
2023-03-16T12:22:04.176Z,50.43
2023-03-16T12:24:39.934Z,51.50
2023-03-16T12:27:12.793Z,49.37
2023-03-16T12:29:46.430Z,48.69
2023-03-16T12:32:22.750Z,49.19
2023-03-16T12:34:56.831Z,49.28
2023-03-16T12:37:36.404Z,49.65
2023-03-16T12:40:10.647Z,49.27
2023-03-16T12:42:53.395Z,49.68
2023-03-16T12:45:31.757Z,48.47
2023-03-16T12:48:10.246Z,48.02
2023-03-16T12:50:49.439Z,48.10
2023-03-16T12:53:28.481Z,47.55
2023-03-16T12:55:57.292Z,48.41
2023-03-16T12:58:27.434Z,49.82
2023-03-16T13:01:00.481Z,47.19
2023-03-16T13:03:29.727Z,48.18
2023-03-16T13:06:00.741Z,46.43
2023-03-16T13:08:28.922Z,46.33
2023-03-16T13:11:05.617Z,46.99
2023-03-16T13:13:34.093Z,45.72
2023-03-16T13:16:09.266Z,45.85
2023-03-16T13:18:41.789Z,45.43
2023-03-16T13:21:18.712Z,45.95
2023-03-16T13:23:57.407Z,45.47
2023-03-16T13:26:39.000Z,43.61
2023-03-16T13:29:20.305Z,45.52
2023-03-16T13:31:48.616Z,46.26
2023-03-16T13:34:22.336Z,48.20
2023-03-16T13:36:54.207Z,45.81
2023-03-16T13:39:23.240Z,45.05
2023-03-16T13:42:03.851Z,44.59
2023-03-16T13:44:32.785Z,44.43
2023-03-16T13:47:05.428Z,43.89
2023-03-16T13:49:34.283Z,43.74
2023-03-16T13:52:03.481Z,44.39
2023-03-16T13:54:31.718Z,42.80
2023-03-16T13:57:03.732Z,46.91
2023-03-16T13:59:31.672Z,44.56
2023-03-16T14:02:01.801Z,45.16
2023-03-16T14:04:31.735Z,44.40
2023-03-16T14:07:03.549Z,41.69
2023-03-16T14:09:34.487Z,43.35
2023-03-16T14:12:02.449Z,43.80
2023-03-16T14:14:31.310Z,43.48
2023-03-16T14:17:05.428Z,43.08
2023-03-16T14:19:42.309Z,40.89
2023-03-16T14:22:20.431Z,43.56
2023-03-16T14:24:54.822Z,43.85
2023-03-16T14:27:28.350Z,44.09
2023-03-16T14:30:00.983Z,45.38
2023-03-16T14:32:31.379Z,43.64
2023-03-16T14:35:12.827Z,43.46
2023-03-16T14:37:42.867Z,44.11
2023-03-16T14:40:24.188Z,43.04
2023-03-16T14:42:52.992Z,43.61
2023-03-16T14:45:22.631Z,44.35
2023-03-16T14:47:53.573Z,44.17
2023-03-16T14:50:25.188Z,42.64
2023-03-16T14:52:57.227Z,43.32
2023-03-16T14:55:25.669Z,42.65
2023-03-16T14:57:53.894Z,42.91
2023-03-16T15:00:22.893Z,43.69
2023-03-16T15:02:58.925Z,43.30
2023-03-16T15:05:35.297Z,45.49
2023-03-16T15:08:09.485Z,47.32
2023-03-16T15:10:37.396Z,49.70
2023-03-16T15:13:16.103Z,48.57
2023-03-16T15:15:44.045Z,47.83
2023-03-16T15:18:12.004Z,46.14
2023-03-16T15:20:42.054Z,44.03
2023-03-16T15:23:15.663Z,43.73
2023-03-16T15:25:44.759Z,43.20
2023-03-16T15:28:17.303Z,43.81
2023-03-16T15:30:46.206Z,44.05
2023-03-16T15:33:14.180Z,44.47
2023-03-16T15:35:42.939Z,45.91
2023-03-16T15:38:16.534Z,45.88
2023-03-16T15:40:45.658Z,46.81
2023-03-16T15:43:14.526Z,45.02
2023-03-16T15:45:43.448Z,45.89
2023-03-16T15:48:11.686Z,46.98
2023-03-16T15:50:41.366Z,47.42
2023-03-16T15:53:29.633Z,48.03
2023-03-16T15:56:03.004Z,49.78
2023-03-16T15:58:32.436Z,47.85
2023-03-16T16:01:01.528Z,48.73
2023-03-16T16:03:29.201Z,48.51
2023-03-16T16:05:57.044Z,48.79
2023-03-16T16:08:24.687Z,48.53
2023-03-16T16:10:53.525Z,48.17
2023-03-16T16:13:37.449Z,48.67
2023-03-16T16:16:13.282Z,48.50
2023-03-16T16:18:41.079Z,50.29
2023-03-16T16:21:17.092Z,49.84
2023-03-16T16:23:44.772Z,49.56
2023-03-16T16:26:23.167Z,48.92
2023-03-16T16:28:52.891Z,49.42
2023-03-16T16:31:22.714Z,49.11
2023-03-16T16:33:50.795Z,48.66
2023-03-16T16:36:20.981Z,48.75
2023-03-16T16:38:49.495Z,48.37
2023-03-16T16:41:24.938Z,47.72
2023-03-16T16:43:54.612Z,47.67
2023-03-16T16:46:24.700Z,47.47
2023-03-16T16:48:54.397Z,47.23
2023-03-16T16:51:24.636Z,46.99
2023-03-16T16:53:52.976Z,46.73
2023-03-16T16:56:27.504Z,47.10
2023-03-16T16:58:57.653Z,47.62
2023-03-16T17:01:29.685Z,48.34
2023-03-16T17:03:57.467Z,49.64
2023-03-16T17:06:25.407Z,51.17
2023-03-16T17:08:55.020Z,51.47
2023-03-16T17:11:26.192Z,51.05
2023-03-16T17:13:57.816Z,51.89
2023-03-16T17:16:26.617Z,51.46
2023-03-16T17:18:55.221Z,51.64
2023-03-16T17:21:25.277Z,52.04
2023-03-16T17:23:53.389Z,50.77
2023-03-16T17:26:24.851Z,49.96
2023-03-16T17:28:54.783Z,51.06
2023-03-16T17:31:26.214Z,51.01
2023-03-16T17:33:55.325Z,51.72
2023-03-16T17:36:23.477Z,52.04
2023-03-16T17:38:52.054Z,52.89
2023-03-16T17:41:23.376Z,54.21
2023-03-16T17:43:54.342Z,54.22
2023-03-16T17:46:25.331Z,53.63
2023-03-16T17:48:55.506Z,53.39
2023-03-16T17:51:25.535Z,53.74
2023-03-16T17:53:53.799Z,53.18
2023-03-16T17:56:24.214Z,53.84
2023-03-16T17:58:56.630Z,54.51
2023-03-16T18:01:29.855Z,54.72
2023-03-16T18:03:57.968Z,54.81
2023-03-16T18:06:27.293Z,53.85
2023-03-16T18:08:54.815Z,53.42
2023-03-16T18:11:25.301Z,51.75
2023-03-16T18:13:53.608Z,50.70
2023-03-16T18:16:28.114Z,51.25
2023-03-16T18:19:00.963Z,50.71
2023-03-16T18:21:28.510Z,51.13
2023-03-16T18:23:56.048Z,51.31
2023-03-16T18:26:24.557Z,51.75
2023-03-16T18:28:53.386Z,52.24
2023-03-16T18:31:23.623Z,51.51
2023-03-16T18:33:53.635Z,51.49
2023-03-16T18:36:25.341Z,51.66
2023-03-16T18:38:54.274Z,51.88
2023-03-16T18:41:23.795Z,52.53
2023-03-16T18:43:52.282Z,51.45
2023-03-16T18:46:26.165Z,51.23
2023-03-16T18:48:56.228Z,51.51
2023-03-16T18:51:25.650Z,51.33
2023-03-16T18:53:54.072Z,52.43
2023-03-16T18:56:23.430Z,52.09
2023-03-16T18:58:52.517Z,51.87
2023-03-16T19:01:24.859Z,52.47
2023-03-16T19:03:53.403Z,52.75
2023-03-16T19:06:27.273Z,52.84
2023-03-16T19:08:58.509Z,51.92
2023-03-16T19:11:26.476Z,52.40
2023-03-16T19:13:54.801Z,53.43
2023-03-16T19:16:23.380Z,54.43
2023-03-16T19:18:51.002Z,54.71
2023-03-16T19:21:21.058Z,55.35
2023-03-16T19:23:55.434Z,55.00
2023-03-16T19:26:24.538Z,55.39
2023-03-16T19:28:52.282Z,54.86
2023-03-16T19:31:22.625Z,55.32
2023-03-16T19:33:51.904Z,55.93
2023-03-16T19:36:23.134Z,56.06
2023-03-16T19:38:51.572Z,56.86
2023-03-16T19:41:23.794Z,57.31
2023-03-16T19:43:54.556Z,58.19
2023-03-16T19:46:22.567Z,58.97
2023-03-16T19:48:50.085Z,58.81
2023-03-16T19:51:18.487Z,59.09
2023-03-16T19:53:46.028Z,60.34
2023-03-16T19:56:16.088Z,59.08
2023-03-16T19:58:45.922Z,60.00
2023-03-16T20:01:19.036Z,60.07
2023-03-16T20:03:48.532Z,59.10
2023-03-16T20:06:17.331Z,58.76
2023-03-16T20:08:45.722Z,58.88
2023-03-16T20:11:18.518Z,59.18
2023-03-16T20:13:47.721Z,58.87
2023-03-16T20:16:23.675Z,57.69
2023-03-16T20:18:56.028Z,57.56
2023-03-16T20:21:23.524Z,57.06
2023-03-16T20:23:51.330Z,58.28
2023-03-16T20:26:21.971Z,57.68
2023-03-16T20:28:50.426Z,57.58
2023-03-16T20:31:22.171Z,57.25
2023-03-16T20:33:51.993Z,57.93
2023-03-16T20:36:20.748Z,58.34
2023-03-16T20:38:48.725Z,57.69
2023-03-16T20:41:22.296Z,57.35
2023-03-16T20:43:49.898Z,57.04
2023-03-16T20:46:20.137Z,57.96
2023-03-16T20:48:48.961Z,57.94
2023-03-16T20:51:17.080Z,58.32
2023-03-16T20:53:45.277Z,58.10
2023-03-16T20:56:17.938Z,58.67
2023-03-16T20:58:47.830Z,60.12
2023-03-16T21:01:18.263Z,59.38
2023-03-16T21:03:47.510Z,60.12
2023-03-16T21:06:24.103Z,58.55
2023-03-16T21:08:52.912Z,58.59
2023-03-16T21:11:23.524Z,59.25
2023-03-16T21:13:51.836Z,58.98
2023-03-16T21:16:20.050Z,58.22
2023-03-16T21:18:47.876Z,58.86
2023-03-16T21:21:16.435Z,58.25
2023-03-16T21:23:46.063Z,58.35
2023-03-16T21:26:18.592Z,56.80
2023-03-16T21:28:51.892Z,57.51
2023-03-16T21:31:19.833Z,57.80
2023-03-16T21:33:48.222Z,57.35
2023-03-16T21:36:18.106Z,57.73
2023-03-16T21:38:47.771Z,57.08
2023-03-16T21:41:16.517Z,56.84
2023-03-16T21:43:44.628Z,56.53
2023-03-16T21:46:17.109Z,56.10
2023-03-16T21:48:45.826Z,56.69
2023-03-16T21:51:14.984Z,57.47
2023-03-16T21:53:43.181Z,57.62
2023-03-16T21:56:15.380Z,58.50
2023-03-16T21:58:43.033Z,59.74
2023-03-16T22:01:22.964Z,59.58
2023-03-16T22:03:53.183Z,59.43
2023-03-16T22:06:21.565Z,59.30
2023-03-16T22:08:51.150Z,58.90
2023-03-16T22:11:22.511Z,58.57
2023-03-16T22:13:51.097Z,59.61
2023-03-16T22:16:20.460Z,59.73
2023-03-16T22:18:49.927Z,58.88
2023-03-16T22:21:28.208Z,58.70
2023-03-16T22:23:57.540Z,58.05
2023-03-16T22:26:27.429Z,58.98
2023-03-16T22:28:56.336Z,58.00
2023-03-16T22:31:31.776Z,57.50
2023-03-16T22:34:00.618Z,57.49
2023-03-16T22:36:28.252Z,56.72
2023-03-16T22:38:59.394Z,56.50
2023-03-16T22:41:30.257Z,56.50
2023-03-16T22:43:59.500Z,55.95
2023-03-16T22:46:29.223Z,55.65
2023-03-16T22:48:57.831Z,55.76
2023-03-16T22:51:30.737Z,55.87
2023-03-16T22:54:01.142Z,55.73
2023-03-16T22:56:31.287Z,55.18
2023-03-16T22:59:01.534Z,54.97
2023-03-16T23:01:33.990Z,55.63
2023-03-16T23:04:02.338Z,55.24
2023-03-16T23:06:32.432Z,55.44
2023-03-16T23:09:00.221Z,56.58
2023-03-16T23:11:31.899Z,55.74
2023-03-16T23:14:00.612Z,55.48
2023-03-16T23:16:30.391Z,55.75
2023-03-16T23:18:58.212Z,56.12
2023-03-16T23:21:27.796Z,55.79
2023-03-16T23:24:03.538Z,55.94
2023-03-16T23:26:33.428Z,55.45
2023-03-16T23:29:00.937Z,56.05
2023-03-16T23:31:28.941Z,56.06
2023-03-16T23:33:56.862Z,56.33
2023-03-16T23:36:25.774Z,55.01
2023-03-16T23:38:53.359Z,55.57
2023-03-16T23:41:23.551Z,55.83
2023-03-16T23:43:54.733Z,54.70
2023-03-16T23:46:25.271Z,54.47
2023-03-16T23:48:54.866Z,54.69
2023-03-16T23:51:25.547Z,54.61
2023-03-16T23:53:53.160Z,54.12
2023-03-16T23:56:21.534Z,54.23
2023-03-16T23:58:49.515Z,54.86
